• Join FlightAware (Why Join?)
  • Login
  • US Flag 
07:46AM EDT


 

Airport Tracker/Info


-or-


 

Live Flight TrackerFlight Track Log ✈ EGF4393 ✈ 22-Apr-2013 ✈ KORD - KCWA

Flight Track Log - Related Links

Times and Time Zones

All times are in EDT time to prevent confusion due to time zone crossing. See the EGF4393 flight status page for this flight to view local times or setup timezone preferences in your user account.

Time Position Orientation Groundspeed Altitude Reporting Facility
EDT Latitude Longitude Course Direction KTS MPH feet Rate Location/Type
03:54PM 41.9667 -87.8167 346° North 203 234 3,500  Level Chicago TRACON
03:55PM 42.2497 -87.9916 350° North  Level FlightAware Approximate
03:55PM 41.9667 -87.7333 90° East 233 268 5,000  Level Chicago TRACON
03:56PM 42.3457 -88.0156 350° North  Level FlightAware Approximate
03:56PM 41.9833 -87.6333 77° East 268 308 6,000  Level Chicago TRACON
03:56PM 42.0500 -87.6000 20° North 286 329 8,100 2,400 Climbing Chicago TRACON
03:57PM 42.4385 -88.0544 352° North  Level FlightAware Approximate
03:57PM 42.1000 -87.6667 315° West 274 315 10,600  Level Chicago TRACON
03:58PM 42.5310 -88.0881 346° North  Level FlightAware Approximate
03:59PM 42.6153 -88.1161 346° North  Level FlightAware Approximate
03:59PM 42.1889 -87.7436 327° Northwest 312 359 12,800  Level Chicago Center
04:00PM 42.2764 -87.7444 360° North 317 365 14,800 1,800 Climbing Chicago Center
04:01PM 42.3800 -87.7550 356° North 330 380 16,500 1,320 Climbing Chicago Center
04:02PM 42.4703 -87.8028 339° North 348 400 17,600 900 Climbing Chicago Center
04:03PM 42.5647 -87.8508 339° North 362 417 18,400 840 Climbing Chicago Center
04:04PM 42.6594 -87.9069 336° Northwest 370 426 19,400 960 Climbing Chicago Center
04:05PM 42.7503 -87.9831 328° Northwest 380 437 20,400 1,020 Climbing Chicago Center
04:06PM 42.8600 -88.0694 330° Northwest 388 447 21,600 720 Climbing Chicago Center
04:07PM 42.9561 -88.1464 330° Northwest 397 457 22,000 180 Climbing Chicago Center
04:08PM 43.0517 -88.2244 329° Northwest 399 459 22,000  Level Chicago Center
04:09PM 43.1481 -88.3011 330° Northwest 400 460 22,000  Level Chicago Center
04:10PM 43.2447 -88.3803 329° Northwest 403 464 22,000  Level Chicago Center
04:11PM 43.3422 -88.4594 329° Northwest 404 465 22,000  Level Chicago Center
04:12PM 43.4475 -88.5467 329° Northwest 401 461 22,000  Level Chicago Center
04:13PM 43.5414 -88.6231 329° Northwest 404 465 22,000  Level Chicago Center
04:14PM 43.6531 -88.7156 329° Northwest 402 463 22,000  Level Minneapolis Center
04:15PM 43.7492 -88.7956 329° Northwest 403 464 22,000 -540 Level Minneapolis Center
04:16PM 43.8464 -88.8775 329° Northwest 405 466 20,900 -1,500 Descending Chicago Center
04:18PM 43.9417 -88.9561 329° Northwest 401 461 18,900 -1,860 Descending Chicago Center
04:19PM 44.0322 -89.0325 329° Northwest 386 444 17,100 -1,980 Descending Chicago Center
04:20PM 44.1347 -89.1172 329° Northwest 371 427 14,900 -1,740 Descending Chicago Center
04:21PM 44.2092 -89.1969 322° Northwest 346 398 13,600 -1,200 Descending Minneapolis Center
04:22PM 44.2728 -89.2908 313° West 322 371 12,600 -1,020 Descending Minneapolis Center
04:23PM 44.3303 -89.3711 315° West 306 352 11,600 -1,020 Descending Minneapolis Center
04:24PM 44.3897 -89.4519 316° Northwest 289 333 10,600 -1,080 Descending Minneapolis Center
04:25PM 44.4478 -89.5308 316° Northwest 281 323 9,400 -1,320 Descending Minneapolis Center
04:26PM 44.5069 -89.6100 316° Northwest 283 326 8,000 -1,380 Descending Minneapolis Center
04:27PM 44.5636 -89.6897 315° West 276 318 6,600 -1,380 Descending Minneapolis Center
04:28PM 44.6122 -89.7594 314° West 262 302 5,200 -1,260 Descending Minneapolis Center
04:29PM 44.6619 -89.8319 314° West 249 287 4,100 -1,080 Descending Minneapolis Center
04:30PM 44.7089 -89.8994 314° West 235 270 3,100 -1,020 Descending Minneapolis Center